createdAt,value
2023-01-29T00:01:15.997Z,-0.10
2023-01-29T00:03:53.218Z,-0.10
2023-01-29T00:06:26.243Z,-0.09
2023-01-29T00:08:59.314Z,-0.08
2023-01-29T00:11:32.466Z,-0.07
2023-01-29T00:14:05.735Z,-0.05
2023-01-29T00:16:41.158Z,-0.08
2023-01-29T00:19:15.585Z,-0.12
2023-01-29T00:21:48.576Z,-0.14
2023-01-29T00:24:21.712Z,-0.15
2023-01-29T00:26:54.727Z,-0.13
2023-01-29T00:29:27.720Z,-0.14
2023-01-29T00:32:00.907Z,-0.19
2023-01-29T00:34:35.432Z,-0.24
2023-01-29T00:37:08.863Z,-0.25
2023-01-29T00:39:48.039Z,-0.26
2023-01-29T00:42:38.759Z,-0.29
2023-01-29T00:45:12.741Z,-0.30
2023-01-29T00:47:45.444Z,-0.19
2023-01-29T00:50:20.039Z,-0.30
2023-01-29T00:52:54.693Z,-0.32
2023-01-29T00:55:27.763Z,-0.34
2023-01-29T00:58:00.711Z,-0.33
2023-01-29T01:00:33.853Z,-0.31
2023-01-29T01:03:05.962Z,-0.32
2023-01-29T01:05:40.470Z,-0.31
2023-01-29T01:08:31.097Z,-0.32
2023-01-29T01:11:06.661Z,-0.31
2023-01-29T01:13:39.650Z,-0.32
2023-01-29T01:16:14.435Z,-0.34
2023-01-29T01:18:47.636Z,-0.34
2023-01-29T01:21:21.977Z,-0.33
2023-01-29T01:23:55.009Z,-0.30
2023-01-29T01:26:28.873Z,-0.28
2023-01-29T01:29:01.906Z,-0.28
2023-01-29T01:31:34.987Z,-0.26
2023-01-29T01:34:13.692Z,-0.27
2023-01-29T01:36:48.120Z,-0.27
2023-01-29T01:39:21.121Z,-0.27
2023-01-29T01:41:54.661Z,-0.28
2023-01-29T01:44:53.700Z,-0.25
2023-01-29T01:47:31.812Z,-0.29
2023-01-29T01:50:09.870Z,-0.30
2023-01-29T01:52:46.414Z,-0.32
2023-01-29T01:55:22.675Z,-0.33
2023-01-29T01:58:01.318Z,-0.34
2023-01-29T02:00:34.662Z,-0.34
2023-01-29T02:03:27.168Z,-0.32
2023-01-29T02:06:18.800Z,-0.33
2023-01-29T02:09:15.792Z,-0.32
2023-01-29T02:11:48.776Z,-0.33
2023-01-29T02:14:22.789Z,-0.35
2023-01-29T02:16:55.984Z,-0.38
2023-01-29T02:19:40.496Z,-0.39
2023-01-29T02:22:38.732Z,-0.35
2023-01-29T02:26:00.349Z,-0.33
2023-01-29T02:28:40.689Z,-0.40
2023-01-29T02:31:25.489Z,-0.40
2023-01-29T02:34:09.963Z,-0.40
2023-01-29T02:36:50.633Z,-0.40
2023-01-29T02:39:30.999Z,-0.42
2023-01-29T02:42:14.219Z,-0.40
2023-01-29T02:44:53.341Z,-0.40
2023-01-29T02:47:35.009Z,-0.40
2023-01-29T02:50:16.189Z,-0.41
2023-01-29T02:52:59.011Z,-0.42
2023-01-29T02:55:37.308Z,-0.40
2023-01-29T02:58:15.138Z,-0.36
2023-01-29T03:00:52.248Z,-0.35
2023-01-29T03:03:30.300Z,-0.35
2023-01-29T03:06:07.898Z,-0.35
2023-01-29T03:08:45.549Z,-0.35
2023-01-29T03:11:19.457Z,-0.35
2023-01-29T03:13:57.840Z,-0.35
2023-01-29T03:16:37.205Z,-0.33
2023-01-29T03:19:16.278Z,-0.32
2023-01-29T03:22:00.136Z,-0.34
2023-01-29T03:24:59.918Z,-0.34
2023-01-29T03:27:59.274Z,-0.33
2023-01-29T03:31:00.395Z,-0.31
2023-01-29T03:33:47.106Z,-0.31
2023-01-29T03:36:24.276Z,-0.32
2023-01-29T03:38:57.289Z,-0.35
2023-01-29T03:41:35.896Z,-0.35
2023-01-29T03:44:15.778Z,-0.32
2023-01-29T03:46:56.562Z,-0.29
2023-01-29T03:49:42.916Z,-0.29
2023-01-29T03:52:23.274Z,-0.31
2023-01-29T03:55:07.014Z,-0.30
2023-01-29T03:57:46.577Z,-0.33
2023-01-29T04:00:25.602Z,-0.32
2023-01-29T04:03:11.240Z,-0.31
2023-01-29T04:05:52.777Z,-0.31
2023-01-29T04:08:35.841Z,-0.32
2023-01-29T04:11:15.345Z,-0.32
2023-01-29T04:13:49.444Z,-0.34
2023-01-29T04:16:30.106Z,-0.33
2023-01-29T04:19:29.797Z,-0.34
2023-01-29T04:22:13.920Z,-0.36
2023-01-29T04:24:47.964Z,-0.36
2023-01-29T04:27:27.500Z,-0.23
2023-01-29T04:30:15.205Z,-0.33
2023-01-29T04:33:02.091Z,-0.33
2023-01-29T04:35:49.943Z,-0.33
2023-01-29T04:38:36.200Z,-0.33
2023-01-29T04:41:15.190Z,-0.34
2023-01-29T04:43:59.315Z,-0.34
2023-01-29T04:46:40.268Z,-0.35
2023-01-29T04:49:20.937Z,-0.35
2023-01-29T04:52:02.096Z,-0.36
2023-01-29T04:54:52.050Z,-0.34
2023-01-29T04:57:30.827Z,-0.34
2023-01-29T05:00:12.069Z,-0.33
2023-01-29T05:02:47.076Z,-0.32
2023-01-29T05:05:22.208Z,-0.32
2023-01-29T05:07:56.621Z,-0.30
2023-01-29T05:10:31.345Z,-0.31
2023-01-29T05:13:08.865Z,-0.31
2023-01-29T05:15:48.189Z,-0.29
2023-01-29T05:18:21.534Z,-0.28
2023-01-29T05:20:57.988Z,-0.28
2023-01-29T05:23:31.102Z,-0.26
2023-01-29T05:26:06.044Z,-0.27
2023-01-29T05:28:38.013Z,-0.27
2023-01-29T05:31:11.096Z,-0.27
2023-01-29T05:33:44.144Z,-0.27
2023-01-29T05:36:17.111Z,-0.26
2023-01-29T05:38:50.329Z,-0.25
2023-01-29T05:41:24.780Z,-0.23
2023-01-29T05:43:57.802Z,-0.21
2023-01-29T05:46:30.885Z,-0.22
2023-01-29T05:49:03.955Z,-0.22
2023-01-29T05:51:37.382Z,-0.24
2023-01-29T05:54:12.605Z,-0.26
2023-01-29T05:56:47.036Z,-0.27
2023-01-29T05:59:20.207Z,-0.27
2023-01-29T06:01:53.960Z,-0.25
2023-01-29T06:04:26.862Z,-0.17
2023-01-29T06:07:01.169Z,-0.32
2023-01-29T06:09:34.151Z,-0.35
2023-01-29T06:12:08.815Z,-0.39
2023-01-29T06:14:41.769Z,-0.40
2023-01-29T06:17:14.804Z,-0.42
2023-01-29T06:19:47.779Z,-0.44
2023-01-29T06:22:20.760Z,-0.43
2023-01-29T06:24:53.753Z,-0.43
2023-01-29T06:27:28.133Z,-0.44
2023-01-29T06:30:01.144Z,-0.43
2023-01-29T06:32:34.269Z,-0.42
2023-01-29T06:35:09.863Z,-0.42
2023-01-29T06:37:42.832Z,-0.42
2023-01-29T06:40:16.195Z,-0.40
2023-01-29T06:42:50.848Z,-0.38
2023-01-29T06:45:24.113Z,-0.34
2023-01-29T06:47:59.927Z,-0.29
2023-01-29T06:50:34.258Z,-0.24
2023-01-29T06:53:07.213Z,-0.23
2023-01-29T06:55:40.359Z,-0.22
2023-01-29T06:58:14.689Z,-0.22
2023-01-29T07:00:47.930Z,-0.22
2023-01-29T07:03:21.174Z,-0.19
2023-01-29T07:05:54.346Z,-0.20
2023-01-29T07:08:28.421Z,-0.16
2023-01-29T07:11:01.410Z,-0.03
2023-01-29T07:13:35.823Z,-0.10
2023-01-29T07:16:09.052Z,-0.08
2023-01-29T07:18:42.193Z,-0.06
2023-01-29T07:21:15.298Z,-0.02
2023-01-29T07:23:48.274Z,-0.02
2023-01-29T07:26:21.275Z,-0.02
2023-01-29T07:28:55.798Z,0.01
2023-01-29T07:31:28.945Z,0.04
2023-01-29T07:34:02.098Z,0.04
2023-01-29T07:36:37.203Z,0.05
2023-01-29T07:39:10.189Z,0.05
2023-01-29T07:41:43.173Z,0.07
2023-01-29T07:44:23.768Z,0.09
2023-01-29T07:46:56.802Z,0.14
2023-01-29T07:49:29.908Z,0.20
2023-01-29T07:52:02.931Z,0.25
2023-01-29T07:54:35.975Z,0.29
2023-01-29T07:57:08.965Z,0.33
2023-01-29T07:59:43.685Z,0.39
2023-01-29T08:02:17.013Z,0.38
2023-01-29T08:04:50.054Z,0.43
2023-01-29T08:07:23.149Z,0.44
2023-01-29T08:09:56.178Z,0.48
2023-01-29T08:12:29.173Z,0.52
2023-01-29T08:15:03.630Z,0.57
2023-01-29T08:17:43.321Z,0.65
2023-01-29T08:20:23.693Z,0.74
2023-01-29T08:23:04.486Z,0.80
2023-01-29T08:25:38.299Z,0.78
2023-01-29T08:28:12.383Z,0.76
2023-01-29T08:30:47.214Z,0.77
2023-01-29T08:33:29.863Z,0.82
2023-01-29T08:36:11.269Z,0.84
2023-01-29T08:38:44.254Z,0.89
2023-01-29T08:41:17.265Z,0.93
2023-01-29T08:43:50.319Z,1.01
2023-01-29T08:46:24.858Z,1.11
2023-01-29T08:48:57.907Z,1.14
2023-01-29T08:51:30.936Z,1.21
2023-01-29T08:54:03.984Z,1.31
2023-01-29T08:56:36.981Z,1.39
2023-01-29T08:59:10.921Z,1.48
2023-01-29T09:01:45.055Z,1.64
2023-01-29T09:04:18.041Z,1.62
2023-01-29T09:06:51.158Z,1.66
2023-01-29T09:09:24.436Z,1.70
2023-01-29T09:11:57.459Z,1.76
2023-01-29T09:14:30.443Z,1.81
2023-01-29T09:17:04.862Z,1.80
2023-01-29T09:19:37.866Z,1.77
2023-01-29T09:22:12.015Z,1.75
2023-01-29T09:24:45.185Z,1.79
2023-01-29T09:27:18.166Z,1.82
2023-01-29T09:29:51.173Z,1.92
2023-01-29T09:32:55.356Z,2.04
2023-01-29T09:35:18.926Z,2.05
2023-01-29T09:37:52.620Z,2.04
2023-01-29T09:40:27.888Z,1.99
2023-01-29T09:43:05.508Z,1.96
2023-01-29T09:45:42.021Z,1.90
2023-01-29T09:48:16.499Z,1.83
2023-01-29T09:50:52.816Z,1.87
2023-01-29T09:53:32.646Z,1.89
2023-01-29T09:56:12.616Z,1.83
2023-01-29T09:58:45.963Z,1.77
2023-01-29T10:01:24.086Z,1.71
2023-01-29T10:04:15.333Z,1.65
2023-01-29T10:07:01.874Z,1.60
2023-01-29T10:09:57.221Z,1.59
2023-01-29T10:12:47.180Z,1.55
2023-01-29T10:15:33.369Z,1.55
2023-01-29T10:18:34.728Z,1.58
2023-01-29T10:21:29.474Z,1.58
2023-01-29T10:24:16.077Z,1.56
2023-01-29T10:26:49.392Z,1.52
2023-01-29T10:29:23.312Z,1.40
2023-01-29T10:32:04.839Z,1.25
2023-01-29T10:34:43.958Z,1.13
2023-01-29T10:37:21.560Z,1.08
2023-01-29T10:39:54.506Z,1.08
2023-01-29T10:42:33.183Z,1.05
2023-01-29T10:45:20.732Z,1.05
2023-01-29T10:48:30.114Z,1.09
2023-01-29T10:51:14.579Z,1.07
2023-01-29T10:54:00.871Z,1.08
2023-01-29T10:56:52.647Z,1.12
2023-01-29T10:59:40.611Z,1.15
2023-01-29T11:02:17.888Z,1.14
2023-01-29T11:04:51.087Z,1.17
2023-01-29T11:07:24.498Z,1.22
2023-01-29T11:10:04.153Z,1.23
2023-01-29T11:12:38.886Z,1.25
2023-01-29T11:15:20.747Z,1.27
2023-01-29T11:18:10.435Z,1.33
2023-01-29T11:20:45.700Z,1.35
2023-01-29T11:23:28.302Z,1.37
2023-01-29T11:26:04.862Z,1.31
2023-01-29T11:28:40.673Z,1.23
2023-01-29T11:31:22.215Z,1.20
2023-01-29T11:34:06.758Z,1.19
2023-01-29T11:36:40.749Z,1.18
2023-01-29T11:39:16.141Z,1.33
2023-01-29T11:41:54.752Z,1.25
2023-01-29T11:44:36.770Z,1.29
2023-01-29T11:47:19.324Z,1.32
2023-01-29T11:49:56.132Z,1.32
2023-01-29T11:52:37.570Z,1.33
2023-01-29T11:55:19.005Z,1.29
2023-01-29T11:57:58.881Z,1.23
2023-01-29T12:00:34.601Z,1.22
2023-01-29T12:03:14.775Z,1.22
2023-01-29T12:05:56.249Z,1.23
2023-01-29T12:08:34.918Z,1.18
2023-01-29T12:11:14.662Z,1.13
2023-01-29T12:13:55.739Z,1.15
2023-01-29T12:16:34.477Z,1.13
2023-01-29T12:19:16.006Z,1.12
2023-01-29T12:21:55.056Z,1.12
2023-01-29T12:24:35.284Z,1.15
2023-01-29T12:27:19.775Z,1.18
2023-01-29T12:30:03.705Z,1.19
2023-01-29T12:32:45.649Z,1.19
2023-01-29T12:35:23.637Z,1.17
2023-01-29T12:38:03.510Z,1.19
2023-01-29T12:40:41.947Z,1.22
2023-01-29T12:43:22.290Z,1.22
2023-01-29T12:46:02.680Z,1.20
2023-01-29T12:48:43.675Z,1.14
2023-01-29T12:51:19.800Z,1.09
2023-01-29T12:53:58.341Z,1.10
2023-01-29T12:56:36.970Z,1.12
2023-01-29T12:59:19.239Z,1.08
2023-01-29T13:01:59.926Z,1.04
2023-01-29T13:04:40.230Z,1.04
2023-01-29T13:07:18.865Z,1.03
2023-01-29T13:09:56.372Z,1.01
2023-01-29T13:12:30.404Z,1.01
2023-01-29T13:15:06.772Z,1.08
2023-01-29T13:17:49.107Z,0.95
2023-01-29T13:20:29.911Z,0.92
2023-01-29T13:23:16.490Z,0.93
2023-01-29T13:25:52.854Z,0.95
2023-01-29T13:28:28.218Z,0.94
2023-01-29T13:31:24.259Z,0.98
2023-01-29T13:34:09.378Z,0.98
2023-01-29T13:36:45.186Z,0.95
2023-01-29T13:39:25.550Z,0.93
2023-01-29T13:42:00.657Z,0.88
2023-01-29T13:44:35.901Z,0.84
2023-01-29T13:47:13.830Z,0.82
2023-01-29T13:49:56.611Z,0.83
2023-01-29T13:52:36.641Z,0.82
2023-01-29T13:55:26.285Z,0.78
2023-01-29T13:58:00.664Z,0.74
2023-01-29T14:00:58.575Z,0.74
2023-01-29T14:04:04.809Z,0.71
2023-01-29T14:06:51.381Z,0.63
2023-01-29T14:09:54.979Z,0.59
2023-01-29T14:12:37.196Z,0.57
2023-01-29T14:15:32.818Z,0.60
2023-01-29T14:18:23.004Z,0.56
2023-01-29T14:21:07.308Z,0.58
2023-01-29T14:23:46.122Z,0.64
2023-01-29T14:26:27.394Z,0.52
2023-01-29T14:29:05.859Z,0.48
2023-01-29T14:31:45.259Z,0.49
2023-01-29T14:34:24.959Z,0.48
2023-01-29T14:37:02.444Z,0.46
2023-01-29T14:39:44.194Z,0.45
2023-01-29T14:42:23.659Z,0.46
2023-01-29T14:45:00.498Z,0.46
2023-01-29T14:48:06.786Z,0.48
2023-01-29T14:50:51.477Z,0.46
2023-01-29T14:53:31.221Z,0.43
2023-01-29T14:56:15.298Z,0.45
2023-01-29T14:58:50.967Z,0.43
2023-01-29T15:01:31.727Z,0.42
2023-01-29T15:04:07.609Z,0.42
2023-01-29T15:06:46.865Z,0.42
2023-01-29T15:09:37.335Z,0.45
2023-01-29T15:12:21.868Z,0.47
2023-01-29T15:15:04.550Z,0.50
2023-01-29T15:17:43.917Z,0.49
2023-01-29T15:20:32.511Z,0.51
2023-01-29T15:23:26.786Z,0.52
2023-01-29T15:26:01.945Z,0.48
2023-01-29T15:28:37.143Z,0.45
2023-01-29T15:31:17.188Z,0.44
2023-01-29T15:33:53.196Z,0.44
2023-01-29T15:36:29.705Z,0.44
2023-01-29T15:39:21.573Z,0.47
2023-01-29T15:42:11.743Z,0.48
2023-01-29T15:44:49.150Z,0.50
2023-01-29T15:47:25.550Z,0.52
2023-01-29T15:49:59.565Z,0.55
2023-01-29T15:52:35.297Z,0.68
2023-01-29T15:55:13.399Z,0.62
2023-01-29T15:57:46.660Z,0.64
2023-01-29T16:00:28.662Z,0.68
2023-01-29T16:03:01.822Z,0.69
2023-01-29T16:05:35.235Z,0.70
2023-01-29T16:08:13.801Z,0.70
2023-01-29T16:10:54.181Z,0.70
2023-01-29T16:13:30.288Z,0.71
2023-01-29T16:16:08.355Z,0.68
2023-01-29T16:18:57.788Z,0.68
2023-01-29T16:21:37.611Z,0.68
2023-01-29T16:24:14.007Z,0.68
2023-01-29T16:26:49.285Z,0.66
2023-01-29T16:29:30.694Z,0.67
2023-01-29T16:32:06.992Z,0.69
2023-01-29T16:34:42.769Z,0.70
2023-01-29T16:37:23.855Z,0.74
2023-01-29T16:39:57.677Z,0.75
2023-01-29T16:42:32.239Z,0.76
2023-01-29T16:45:27.767Z,0.82
2023-01-29T16:48:30.879Z,0.83
2023-01-29T16:51:13.482Z,0.80
2023-01-29T16:53:56.619Z,0.81
2023-01-29T16:56:33.500Z,0.76
2023-01-29T16:59:07.774Z,0.74
2023-01-29T17:01:40.951Z,0.72
2023-01-29T17:04:19.598Z,0.70
2023-01-29T17:06:57.644Z,0.70
2023-01-29T17:09:36.340Z,0.75
2023-01-29T17:12:18.445Z,0.76
2023-01-29T17:15:01.715Z,0.79
2023-01-29T17:17:36.209Z,0.77
2023-01-29T17:20:15.872Z,0.78
2023-01-29T17:22:48.843Z,0.80
2023-01-29T17:25:22.186Z,0.82
2023-01-29T17:27:55.285Z,0.84
2023-01-29T17:30:32.328Z,0.86
2023-01-29T17:33:13.485Z,0.87
2023-01-29T17:35:47.933Z,0.89
2023-01-29T17:38:26.444Z,0.91
2023-01-29T17:41:04.215Z,0.93
2023-01-29T17:43:37.253Z,0.94
2023-01-29T17:46:14.756Z,0.94
2023-01-29T17:48:49.184Z,0.94
2023-01-29T17:51:25.034Z,0.94
2023-01-29T17:53:58.260Z,0.97
2023-01-29T17:56:31.357Z,0.98
2023-01-29T17:59:14.183Z,0.99
2023-01-29T18:01:48.321Z,1.00
2023-01-29T18:04:31.050Z,1.02
2023-01-29T18:07:06.410Z,1.04
2023-01-29T18:09:39.420Z,1.02
2023-01-29T18:12:12.509Z,1.01
2023-01-29T18:14:45.503Z,1.04
2023-01-29T18:17:22.343Z,1.05
2023-01-29T18:19:56.343Z,1.05
2023-01-29T18:22:30.461Z,1.17
2023-01-29T18:25:03.411Z,1.06
2023-01-29T18:27:36.424Z,1.04
2023-01-29T18:30:13.944Z,1.04
2023-01-29T18:32:50.309Z,1.04
2023-01-29T18:35:23.447Z,1.03
2023-01-29T18:37:58.138Z,1.04
2023-01-29T18:40:32.566Z,1.04
2023-01-29T18:43:05.776Z,1.04
2023-01-29T18:45:38.917Z,1.03
2023-01-29T18:48:14.636Z,1.03
2023-01-29T18:50:47.777Z,0.99
2023-01-29T18:53:22.266Z,0.97
2023-01-29T18:55:57.185Z,0.98
2023-01-29T18:58:35.802Z,0.95
2023-01-29T19:01:12.071Z,0.95
2023-01-29T19:03:45.271Z,0.96
2023-01-29T19:06:18.355Z,0.95
2023-01-29T19:08:53.048Z,0.96
2023-01-29T19:11:26.089Z,0.98
2023-01-29T19:13:59.343Z,0.97
2023-01-29T19:19:19.002Z,0.99
2023-01-29T19:21:53.514Z,1.02
2023-01-29T19:24:27.673Z,1.04
2023-01-29T19:27:02.005Z,1.05
2023-01-29T19:29:36.639Z,1.09
2023-01-29T19:32:09.953Z,1.12
2023-01-29T19:34:44.366Z,1.14
2023-01-29T19:37:17.493Z,1.14
2023-01-29T19:39:51.133Z,1.12
2023-01-29T19:42:27.330Z,1.12
2023-01-29T19:45:00.311Z,1.13
2023-01-29T19:47:33.796Z,1.12
2023-01-29T19:50:09.774Z,1.12
2023-01-29T19:52:51.965Z,1.13
2023-01-29T19:55:25.934Z,1.10
2023-01-29T19:57:59.026Z,1.10
2023-01-29T20:00:32.651Z,1.12
2023-01-29T20:03:07.896Z,1.12
2023-01-29T20:05:43.879Z,1.12
2023-01-29T20:08:19.783Z,1.12
2023-01-29T20:10:53.079Z,1.12
2023-01-29T20:13:30.215Z,1.13
2023-01-29T20:16:05.422Z,1.25
2023-01-29T20:18:38.479Z,1.13
2023-01-29T20:21:15.025Z,1.11
2023-01-29T20:23:50.365Z,1.11
2023-01-29T20:26:26.651Z,1.12
2023-01-29T20:28:59.836Z,1.13
2023-01-29T20:31:32.910Z,1.17
2023-01-29T20:34:06.015Z,1.19
2023-01-29T20:36:40.579Z,1.21
2023-01-29T20:39:15.517Z,1.23
2023-01-29T20:41:51.030Z,1.27
2023-01-29T20:44:26.020Z,1.30
2023-01-29T20:47:01.766Z,1.30
2023-01-29T20:49:35.036Z,1.29
2023-01-29T20:52:10.757Z,1.30
2023-01-29T20:54:43.730Z,1.32
2023-01-29T20:57:16.895Z,1.34
2023-01-29T20:59:50.126Z,1.35
2023-01-29T21:02:23.166Z,1.37
2023-01-29T21:04:56.678Z,1.39
2023-01-29T21:07:31.137Z,1.40
2023-01-29T21:10:04.188Z,1.42
2023-01-29T21:12:37.230Z,1.44
2023-01-29T21:15:11.407Z,1.48
2023-01-29T21:17:44.394Z,1.49
2023-01-29T21:20:17.706Z,1.51
2023-01-29T21:22:52.394Z,1.52
2023-01-29T21:25:25.425Z,1.53
2023-01-29T21:27:58.413Z,1.51
2023-01-29T21:30:31.729Z,1.53
2023-01-29T21:33:05.877Z,1.52
2023-01-29T21:35:38.808Z,1.65
2023-01-29T21:38:13.151Z,1.58
2023-01-29T21:40:46.223Z,1.57
2023-01-29T21:43:18.410Z,1.58
2023-01-29T21:45:57.161Z,1.60
2023-01-29T21:48:30.179Z,1.60
2023-01-29T21:51:03.199Z,1.61
2023-01-29T21:53:40.288Z,1.62
2023-01-29T21:56:19.523Z,1.65
2023-01-29T21:58:52.692Z,1.66
2023-01-29T22:01:37.325Z,1.67
2023-01-29T22:04:15.746Z,1.72
2023-01-29T22:06:50.628Z,1.74
2023-01-29T22:09:27.432Z,1.74
2023-01-29T22:12:00.583Z,1.77
2023-01-29T22:14:33.572Z,1.75
2023-01-29T22:17:06.610Z,1.75
2023-01-29T22:19:41.811Z,1.76
2023-01-29T22:22:18.294Z,1.76
2023-01-29T22:24:55.212Z,1.75
2023-01-29T22:27:31.444Z,1.76
2023-01-29T22:30:04.897Z,1.77
2023-01-29T22:32:38.055Z,1.77
2023-01-29T22:35:11.535Z,1.79
2023-01-29T22:37:44.843Z,1.80
2023-01-29T22:40:19.671Z,1.80
2023-01-29T22:42:52.881Z,1.80
2023-01-29T22:45:25.851Z,1.80
2023-01-29T22:47:58.900Z,1.79
2023-01-29T22:50:31.889Z,1.78
2023-01-29T22:53:13.303Z,1.77
2023-01-29T22:55:54.659Z,1.78
2023-01-29T22:58:27.631Z,1.77
2023-01-29T23:01:00.848Z,1.76
2023-01-29T23:03:34.219Z,1.77
2023-01-29T23:06:07.259Z,1.76
2023-01-29T23:08:42.998Z,1.76
2023-01-29T23:11:20.427Z,1.75
2023-01-29T23:13:58.424Z,1.75
2023-01-29T23:16:31.487Z,1.76
2023-01-29T23:19:04.550Z,1.75
2023-01-29T23:21:37.873Z,1.74
2023-01-29T23:24:14.349Z,1.75
2023-01-29T23:27:06.893Z,1.73
2023-01-29T23:29:40.094Z,1.72
2023-01-29T23:32:15.587Z,1.72
2023-01-29T23:34:48.707Z,1.74
2023-01-29T23:37:21.786Z,1.75
2023-01-29T23:39:54.726Z,1.76
2023-01-29T23:42:29.116Z,1.73
2023-01-29T23:45:02.080Z,1.74
2023-01-29T23:47:42.297Z,1.75
2023-01-29T23:50:15.639Z,1.74
2023-01-29T23:52:48.784Z,1.75
2023-01-29T23:55:21.940Z,1.72
2023-01-29T23:57:56.358Z,1.73
